Terminal Aerodrome Forecast
Issued by NWS Lake Charles, LA

Home | Current Version | Previous Version | Text Only | Print | Product List | Glossary On
Versions: 1 2 3 4 5 6 7 8 9 10 11 12 13 14 15 16 17
014
FTUS44 KLCH 220520
TAFARA
TAF
KARA 220520Z 2206/2306 VRB04KT P6SM SCT100
     FM220900 VRB04KT P6SM VCSH SCT035 SCT100
     FM221500 18007KT P6SM VCTS BKN040CB
     FM230200 VRB05KT P6SM BKN250=

USA.gov is the U.S. government's official web portal to all federal, state and local government web resources and services.